createdAt,value
2022-08-17T07:10:55.588Z,5.80
2022-08-17T07:15:05.394Z,5.68
2022-08-17T07:19:10.993Z,5.32
2022-08-17T07:23:23.444Z,5.35
2022-08-17T07:27:28.565Z,5.67
2022-08-17T07:31:33.432Z,5.82
2022-08-17T07:35:40.928Z,5.57
2022-08-17T07:40:15.162Z,5.82
2022-08-17T07:44:13.441Z,4.80
2022-08-17T07:48:20.246Z,4.88
2022-08-17T07:52:51.714Z,4.20
2022-08-17T07:56:55.845Z,4.63
2022-08-17T08:01:08.900Z,4.60
2022-08-17T08:05:48.846Z,4.80
2022-08-17T08:09:47.278Z,4.25
2022-08-17T08:13:49.851Z,4.50
2022-08-17T08:17:55.372Z,4.68
2022-08-17T08:22:06.736Z,4.53
2022-08-17T08:26:23.342Z,4.50
2022-08-17T08:30:25.857Z,4.00
2022-08-17T08:34:47.415Z,4.40
2022-08-17T08:39:07.151Z,4.00
2022-08-17T08:43:22.610Z,4.07
2022-08-17T08:47:41.564Z,4.10
2022-08-17T08:51:52.787Z,3.92
2022-08-17T08:56:03.926Z,3.47
2022-08-17T09:00:15.645Z,3.30
2022-08-17T09:05:02.728Z,3.10
2022-08-17T09:09:11.417Z,3.10
2022-08-17T09:13:22.974Z,2.92
2022-08-17T09:17:36.038Z,2.83
2022-08-17T09:21:48.385Z,2.45
2022-08-17T09:25:58.220Z,2.63
2022-08-17T09:30:07.879Z,2.45
2022-08-17T09:34:14.666Z,2.33
2022-08-17T09:38:24.148Z,2.58
2022-08-17T09:42:33.678Z,2.25
2022-08-17T09:46:41.958Z,2.50
2022-08-17T09:51:04.005Z,2.50
2022-08-17T09:55:09.352Z,2.30
2022-08-17T09:59:38.319Z,2.67
2022-08-17T10:04:01.625Z,2.50
2022-08-17T10:08:10.503Z,3.67
2022-08-17T10:12:30.051Z,2.47
2022-08-17T10:16:39.614Z,2.38
2022-08-17T10:20:50.800Z,2.70
2022-08-17T10:25:22.303Z,2.20
2022-08-17T10:29:40.791Z,2.40
2022-08-17T10:34:09.647Z,2.38
2022-08-17T10:38:32.276Z,2.22
2022-08-17T10:42:43.593Z,1.98
2022-08-17T10:46:56.653Z,1.92
2022-08-17T10:51:07.627Z,1.77
2022-08-17T10:55:15.625Z,2.00
2022-08-17T10:59:51.664Z,2.42
2022-08-17T11:03:56.662Z,2.28
2022-08-17T11:08:19.088Z,2.42
2022-08-17T11:12:39.049Z,2.00
2022-08-17T11:16:54.303Z,2.22
2022-08-17T11:21:22.081Z,1.95
2022-08-17T11:25:34.233Z,1.90
2022-08-17T11:34:04.770Z,1.90
2022-08-17T11:38:19.754Z,1.85
2022-08-17T11:42:43.426Z,2.30
2022-08-17T11:47:23.102Z,2.10
2022-08-17T11:51:58.322Z,2.47
2022-08-17T11:56:07.201Z,2.13
2022-08-17T12:00:49.863Z,2.28
2022-08-17T12:05:12.212Z,2.60
2022-08-17T12:09:19.828Z,2.53
2022-08-17T12:13:27.320Z,2.30
2022-08-17T12:17:40.139Z,2.75
2022-08-17T12:25:58.034Z,2.58
2022-08-17T12:30:03.284Z,2.33
2022-08-17T12:34:06.105Z,2.30
2022-08-17T12:38:31.943Z,2.33
2022-08-17T12:42:39.211Z,2.38
2022-08-17T12:46:53.168Z,2.30
2022-08-17T12:51:01.864Z,2.42
2022-08-17T12:55:08.213Z,2.50
2022-08-17T12:59:11.674Z,2.60
2022-08-17T13:03:17.014Z,2.72
2022-08-17T13:07:35.545Z,2.42
2022-08-17T13:11:48.792Z,2.60
2022-08-17T13:15:54.503Z,2.80
2022-08-17T13:19:57.365Z,2.70
2022-08-17T13:24:02.369Z,2.50
2022-08-17T13:28:06.292Z,2.53
2022-08-17T13:32:19.899Z,2.85
2022-08-17T13:36:30.024Z,2.70
2022-08-17T13:40:39.810Z,2.70
2022-08-17T13:44:43.651Z,2.90
2022-08-17T13:48:47.908Z,2.88
2022-08-17T13:52:52.215Z,2.92
2022-08-17T13:57:01.363Z,2.65
2022-08-17T14:01:33.622Z,2.80
2022-08-17T14:05:38.242Z,2.65
2022-08-17T14:09:47.595Z,3.25
2022-08-17T14:13:50.450Z,2.63
2022-08-17T14:17:54.679Z,2.60
2022-08-17T14:21:59.782Z,2.90
2022-08-17T14:26:02.524Z,3.20
2022-08-17T14:30:06.234Z,3.08
2022-08-17T14:34:10.742Z,2.58
2022-08-17T14:38:15.033Z,2.78
2022-08-17T14:42:18.468Z,2.90
2022-08-17T14:46:21.095Z,2.50
2022-08-17T14:50:24.978Z,2.50
2022-08-17T14:54:34.027Z,2.50
2022-08-17T14:58:37.168Z,2.50
2022-08-17T15:02:46.703Z,2.67
2022-08-17T15:06:51.020Z,2.80
2022-08-17T15:10:54.526Z,2.50
2022-08-17T15:14:57.587Z,2.67
2022-08-17T15:19:00.167Z,2.80
2022-08-17T15:23:04.144Z,2.63
2022-08-17T15:27:06.804Z,2.75
2022-08-17T15:31:09.515Z,2.92
2022-08-17T15:35:14.343Z,2.85
2022-08-17T15:39:19.224Z,2.80
2022-08-17T15:43:27.961Z,2.85
2022-08-17T15:47:30.715Z,3.00
2022-08-17T15:51:35.865Z,2.95
2022-08-17T15:55:39.774Z,2.80
2022-08-17T15:59:44.310Z,3.10
2022-08-17T16:04:03.871Z,2.67
2022-08-17T16:08:10.975Z,2.47
2022-08-17T16:12:17.284Z,2.95
2022-08-17T16:16:19.841Z,2.65
2022-08-17T16:20:22.608Z,2.50
2022-08-17T16:24:25.306Z,3.05
2022-08-17T16:28:36.449Z,2.75
2022-08-17T16:32:40.299Z,2.67
2022-08-17T16:36:53.560Z,2.80
2022-08-17T16:40:58.441Z,2.67
2022-08-17T16:45:06.533Z,2.50
2022-08-17T16:49:09.584Z,2.08
2022-08-17T16:53:18.967Z,2.30
2022-08-17T16:57:23.077Z,2.25
2022-08-17T17:01:29.571Z,2.50
2022-08-17T17:05:44.368Z,2.45
2022-08-17T17:09:52.652Z,2.60
2022-08-17T17:13:57.842Z,2.85
2022-08-17T17:18:06.936Z,2.70
2022-08-17T17:22:16.422Z,3.08
2022-08-17T17:26:33.010Z,3.00
2022-08-17T17:30:44.574Z,2.90
2022-08-17T17:34:51.677Z,2.70
2022-08-17T17:39:00.029Z,3.20
2022-08-17T17:43:27.327Z,3.28
2022-08-17T17:47:26.534Z,3.00
2022-08-17T17:52:09.555Z,2.90
2022-08-17T17:56:18.819Z,3.30
2022-08-17T18:00:41.183Z,4.40
2022-08-17T18:04:55.985Z,3.13
2022-08-17T18:09:08.592Z,3.40
2022-08-17T18:13:22.642Z,3.40
2022-08-17T18:17:31.086Z,3.28
2022-08-17T18:21:38.708Z,3.20
2022-08-17T18:25:46.613Z,3.33
2022-08-17T18:29:50.578Z,3.20
2022-08-17T18:33:55.829Z,3.65
2022-08-17T18:38:20.423Z,3.45
2022-08-17T18:42:27.184Z,3.10
2022-08-17T18:46:33.170Z,3.40
2022-08-17T18:50:41.184Z,3.20
2022-08-17T18:55:03.204Z,3.40
2022-08-17T18:59:12.906Z,3.80
2022-08-17T19:03:24.257Z,3.30
2022-08-17T19:07:30.616Z,3.40
2022-08-17T19:11:36.285Z,3.63
2022-08-17T19:15:43.580Z,3.53
2022-08-17T19:19:52.938Z,3.85
2022-08-17T19:24:04.745Z,3.88
2022-08-17T19:28:21.645Z,3.70
2022-08-17T19:32:29.971Z,3.80
2022-08-17T19:36:39.266Z,3.78
2022-08-17T19:40:56.144Z,3.53
2022-08-17T19:45:05.479Z,3.85
2022-08-17T19:49:16.833Z,3.58
2022-08-17T19:53:54.157Z,3.95
2022-08-17T19:58:04.301Z,3.63
2022-08-17T20:02:21.736Z,4.45
2022-08-17T20:06:29.885Z,4.25
2022-08-17T20:10:41.836Z,4.00
2022-08-17T20:14:53.680Z,4.03
2022-08-17T20:19:01.563Z,4.40
2022-08-17T20:23:14.224Z,4.00
2022-08-17T20:27:22.231Z,4.07
2022-08-17T20:31:45.470Z,4.53
2022-08-17T20:36:06.932Z,4.10
2022-08-17T20:40:21.121Z,4.15
2022-08-17T20:44:32.990Z,4.40
2022-08-17T20:48:40.179Z,4.38
2022-08-17T20:52:54.585Z,4.30
2022-08-17T20:57:01.021Z,4.47
2022-08-17T21:01:13.147Z,4.30
2022-08-17T21:05:38.172Z,4.40
2022-08-17T21:09:40.848Z,4.50
2022-08-17T21:14:07.019Z,4.75
2022-08-17T21:18:16.902Z,4.55
2022-08-17T21:22:32.247Z,4.60
2022-08-17T21:26:50.839Z,4.25
2022-08-17T21:30:58.444Z,4.70
2022-08-17T21:35:47.519Z,4.25
2022-08-17T21:39:53.762Z,4.32
2022-08-17T21:44:03.030Z,4.28
2022-08-17T21:48:14.927Z,4.38
2022-08-17T21:52:21.077Z,4.68
2022-08-17T21:56:27.724Z,4.90
2022-08-17T22:00:32.715Z,4.63
2022-08-17T22:04:38.978Z,4.60
2022-08-17T22:08:41.585Z,4.45
2022-08-17T22:13:03.307Z,4.40
2022-08-17T22:17:08.522Z,4.80
2022-08-17T22:21:12.487Z,4.72
2022-08-17T22:25:22.687Z,4.85
2022-08-17T22:29:57.509Z,4.55
2022-08-17T22:34:13.339Z,4.80
2022-08-17T22:38:32.575Z,5.18
2022-08-17T22:42:43.952Z,5.05
2022-08-17T22:46:55.253Z,4.90
2022-08-17T22:51:12.216Z,5.03
2022-08-17T22:55:36.243Z,4.88
2022-08-17T22:59:49.608Z,5.28
2022-08-17T23:07:58.800Z,5.38
2022-08-17T23:12:06.840Z,4.83
2022-08-17T23:16:09.659Z,5.28
2022-08-17T23:20:13.880Z,4.88
2022-08-17T23:24:21.615Z,5.75
2022-08-17T23:28:25.612Z,5.07
2022-08-17T23:32:28.458Z,5.68
2022-08-17T23:36:31.572Z,5.18
2022-08-17T23:40:34.476Z,5.18
2022-08-17T23:44:39.829Z,4.90
2022-08-17T23:48:42.373Z,5.40
2022-08-17T23:52:47.515Z,5.43
2022-08-17T23:56:50.139Z,5.25
